Lavale, Maryland
Current Conditions -  °F | °C
As of 4:10 AM on Wednesday 22 Oct 2014 (Local Time) from KCBE Reporting Station
Overcast Overcast  
Wind Chill: 50°   Ceiling: 2800
Heat Index: 50°   Visibility: 10mi
Dew Point: 46°   Wind: 8mph
Humidity: 87%   Direction: 350°N
Pressure: 30"   Gusts: NA
Location:  39.6607°N, 78.7452°W
Report Text: KCBE 220810Z AUTO 35007KT 10SM BKN028 OVC035 10/08 A3000 RMK AO1
Loading
Personal Weather Stations






























Interactive Weather Map
Tropical Storm Tracking
New forecast layout! Learn more

10-Day Weather Forecast

Advertisements
Track Severe Weather on mobile